createdAt,value
2022-09-27T00:01:43.279Z,11.07
2022-09-27T00:04:11.319Z,10.92
2022-09-27T00:06:40.911Z,10.75
2022-09-27T00:09:07.746Z,10.90
2022-09-27T00:11:36.588Z,10.76
2022-09-27T00:14:05.634Z,10.99
2022-09-27T00:16:33.949Z,11.01
2022-09-27T00:19:01.722Z,10.70
2022-09-27T00:21:29.766Z,11.04
2022-09-27T00:23:56.920Z,10.84
2022-09-27T00:26:23.699Z,11.01
2022-09-27T00:28:50.281Z,10.97
2022-09-27T00:31:21.130Z,10.87
2022-09-27T00:33:48.883Z,10.88
2022-09-27T00:36:16.171Z,10.78
2022-09-27T00:38:42.974Z,10.97
2022-09-27T00:41:14.153Z,10.86
2022-09-27T00:43:46.971Z,10.90
2022-09-27T00:46:19.014Z,10.91
2022-09-27T00:48:48.662Z,10.87
2022-09-27T00:51:16.052Z,10.73
2022-09-27T00:53:47.073Z,10.83
2022-09-27T00:56:24.927Z,10.77
2022-09-27T00:58:57.611Z,10.76
2022-09-27T01:01:24.200Z,10.77
2022-09-27T01:04:00.636Z,10.62
2022-09-27T01:06:27.285Z,10.62
2022-09-27T01:08:53.834Z,10.57
2022-09-27T01:11:35.116Z,10.67
2022-09-27T01:14:18.595Z,10.59
2022-09-27T01:16:54.638Z,10.35
2022-09-27T01:19:43.403Z,10.59
2022-09-27T01:22:15.214Z,10.38
2022-09-27T01:25:09.346Z,10.58
2022-09-27T01:28:09.855Z,10.58
2022-09-27T01:30:47.727Z,10.43
2022-09-27T01:33:31.570Z,10.55
2022-09-27T01:36:07.511Z,10.46
2022-09-27T01:38:45.290Z,10.52
2022-09-27T01:41:26.319Z,10.12
2022-09-27T01:44:15.520Z,10.43
2022-09-27T01:46:55.094Z,10.40
2022-09-27T01:49:56.155Z,10.44
2022-09-27T01:52:27.151Z,10.37
2022-09-27T01:54:58.671Z,10.43
2022-09-27T01:57:49.922Z,10.47
2022-09-27T02:00:24.143Z,10.15
2022-09-27T02:02:56.661Z,10.39
2022-09-27T02:05:37.817Z,10.40
2022-09-27T02:08:31.497Z,9.80
2022-09-27T02:11:09.157Z,10.08
2022-09-27T02:13:44.689Z,10.41
2022-09-27T02:16:33.339Z,10.41
2022-09-27T02:19:10.283Z,10.41
2022-09-27T02:21:44.728Z,10.29
2022-09-27T02:24:19.438Z,10.20
2022-09-27T02:26:55.181Z,10.38
2022-09-27T02:29:28.855Z,10.44
2022-09-27T02:31:57.711Z,10.41
2022-09-27T02:34:29.126Z,10.32
2022-09-27T02:36:56.855Z,10.22
2022-09-27T02:39:24.305Z,10.03
2022-09-27T02:41:59.778Z,10.31
2022-09-27T02:44:27.914Z,10.29
2022-09-27T02:47:12.372Z,10.33
2022-09-27T02:49:53.169Z,10.40
2022-09-27T02:52:52.411Z,10.33
2022-09-27T02:55:26.446Z,10.29
2022-09-27T02:58:17.313Z,10.40
2022-09-27T03:01:09.063Z,10.31
2022-09-27T03:04:06.534Z,10.13
2022-09-27T03:06:37.074Z,10.11
2022-09-27T03:09:03.713Z,10.36
2022-09-27T03:11:30.377Z,10.33
2022-09-27T03:14:08.498Z,10.04
2022-09-27T03:16:41.547Z,10.25
2022-09-27T03:19:31.740Z,10.41
2022-09-27T03:22:28.484Z,10.38
2022-09-27T03:24:55.103Z,10.44
2022-09-27T03:27:21.638Z,10.34
2022-09-27T03:29:48.301Z,10.44
2022-09-27T03:32:16.046Z,10.46
2022-09-27T03:34:58.197Z,10.44
2022-09-27T03:37:24.902Z,10.41
2022-09-27T03:39:52.860Z,10.25
2022-09-27T03:42:19.492Z,10.34
2022-09-27T03:44:50.348Z,10.33
2022-09-27T03:47:17.309Z,10.28
2022-09-27T03:49:43.956Z,10.23
2022-09-27T03:52:11.036Z,10.32
2022-09-27T03:54:37.583Z,10.34
2022-09-27T03:57:06.695Z,10.24
2022-09-27T03:59:34.245Z,10.35
2022-09-27T04:02:19.314Z,10.37
2022-09-27T04:05:06.577Z,10.35
2022-09-27T04:07:33.844Z,10.34
2022-09-27T04:10:00.416Z,10.23
2022-09-27T04:12:28.457Z,10.12
2022-09-27T04:14:55.004Z,10.15
2022-09-27T04:17:44.167Z,10.08
2022-09-27T04:20:34.875Z,10.10
2022-09-27T04:23:06.967Z,9.84
2022-09-27T04:25:36.029Z,10.06
2022-09-27T04:28:11.024Z,9.98
2022-09-27T04:30:37.929Z,10.03
2022-09-27T04:33:14.064Z,9.94
2022-09-27T04:36:02.614Z,10.02
2022-09-27T04:38:29.713Z,10.02
2022-09-27T04:40:56.717Z,10.03
2022-09-27T04:43:25.381Z,9.98
2022-09-27T04:45:52.098Z,9.94
2022-09-27T04:48:18.812Z,9.67
2022-09-27T04:50:47.067Z,10.01
2022-09-27T04:53:14.419Z,9.87
2022-09-27T04:55:45.088Z,9.94
2022-09-27T04:58:11.725Z,9.88
2022-09-27T05:00:40.207Z,9.93
2022-09-27T05:03:26.951Z,9.92
2022-09-27T05:05:57.652Z,9.90
2022-09-27T05:08:24.467Z,9.79
2022-09-27T05:11:20.273Z,9.70
2022-09-27T05:14:05.440Z,9.67
2022-09-27T05:16:41.461Z,9.72
2022-09-27T05:19:37.477Z,9.68
2022-09-27T05:22:13.153Z,9.67
2022-09-27T05:24:40.587Z,9.78
2022-09-27T05:27:08.489Z,9.68
2022-09-27T05:29:35.778Z,9.69
2022-09-27T05:32:13.851Z,9.77
2022-09-27T05:34:41.099Z,9.77
2022-09-27T05:37:08.153Z,9.75
2022-09-27T05:39:38.452Z,9.71
2022-09-27T05:42:05.112Z,9.76
2022-09-27T05:44:31.653Z,9.64
2022-09-27T05:47:00.379Z,9.64
2022-09-27T05:49:28.556Z,9.57
2022-09-27T05:51:55.092Z,9.60
2022-09-27T05:54:21.901Z,9.73
2022-09-27T05:56:48.569Z,9.54
2022-09-27T05:59:32.491Z,9.71
2022-09-27T06:02:18.028Z,9.63
2022-09-27T06:05:07.016Z,9.70
2022-09-27T06:07:58.899Z,9.71
2022-09-27T06:10:32.109Z,9.64
2022-09-27T06:13:00.357Z,9.64
2022-09-27T06:15:36.142Z,9.67
2022-09-27T06:18:04.783Z,9.53
2022-09-27T06:20:33.265Z,9.70
2022-09-27T06:23:07.271Z,9.71
2022-09-27T06:25:34.104Z,9.74
2022-09-27T06:28:17.177Z,9.78
2022-09-27T06:30:49.427Z,9.86
2022-09-27T06:33:25.101Z,9.86
2022-09-27T06:35:54.771Z,9.92
2022-09-27T06:38:21.984Z,9.84
2022-09-27T06:41:02.068Z,9.93
2022-09-27T06:43:43.067Z,9.83
2022-09-27T06:46:38.695Z,9.90
2022-09-27T06:49:29.446Z,9.95
2022-09-27T06:51:58.472Z,10.04
2022-09-27T06:54:25.039Z,10.10
2022-09-27T06:56:51.662Z,10.09
2022-09-27T06:59:18.303Z,10.10
2022-09-27T07:01:45.421Z,10.10
2022-09-27T07:04:31.760Z,10.12
2022-09-27T07:07:10.226Z,10.17
2022-09-27T07:09:39.206Z,10.23
2022-09-27T07:12:06.438Z,10.14
2022-09-27T07:14:33.068Z,10.41
2022-09-27T07:17:00.191Z,10.35
2022-09-27T07:19:31.492Z,10.45
2022-09-27T07:21:58.183Z,10.54
2022-09-27T07:24:26.082Z,10.51
2022-09-27T07:26:52.852Z,10.60
2022-09-27T07:29:21.559Z,10.61
2022-09-27T07:31:50.838Z,10.72
2022-09-27T07:34:17.598Z,10.44
2022-09-27T07:36:44.352Z,10.65
2022-09-27T07:39:12.029Z,10.73
2022-09-27T07:41:43.136Z,10.61
2022-09-27T07:44:11.370Z,10.71
2022-09-27T07:46:50.028Z,10.77
2022-09-27T07:49:24.164Z,10.79
2022-09-27T07:51:50.740Z,10.74
2022-09-27T07:54:32.381Z,10.89
2022-09-27T07:57:22.403Z,10.87
2022-09-27T07:59:51.698Z,10.94
2022-09-27T08:02:20.719Z,10.94
2022-09-27T08:04:49.026Z,11.10
2022-09-27T08:07:16.918Z,11.20
2022-09-27T08:09:46.659Z,11.03
2022-09-27T08:12:13.342Z,11.08
2022-09-27T08:14:47.370Z,11.14
2022-09-27T08:17:16.193Z,11.20
2022-09-27T08:20:02.726Z,11.15
2022-09-27T08:22:46.276Z,11.24
2022-09-27T08:25:35.148Z,11.20
2022-09-27T08:28:04.613Z,11.18
2022-09-27T08:30:40.789Z,11.36
2022-09-27T08:33:08.852Z,11.48
2022-09-27T08:35:35.777Z,11.54
2022-09-27T08:38:03.539Z,11.59
2022-09-27T08:40:44.958Z,11.63
2022-09-27T08:43:22.896Z,11.68
2022-09-27T08:46:02.954Z,11.60
2022-09-27T08:48:30.957Z,11.87
2022-09-27T08:50:58.735Z,11.85
2022-09-27T08:53:30.769Z,11.77
2022-09-27T08:55:59.818Z,11.79
2022-09-27T08:58:31.984Z,11.53
2022-09-27T09:01:02.641Z,11.59
2022-09-27T09:03:37.789Z,11.70
2022-09-27T09:06:14.553Z,11.55
2022-09-27T09:08:56.582Z,11.63
2022-09-27T09:11:37.858Z,11.67
2022-09-27T09:14:21.109Z,11.57
2022-09-27T09:16:59.105Z,11.67
2022-09-27T09:19:47.360Z,11.49
2022-09-27T09:23:06.398Z,11.54
2022-09-27T09:25:45.912Z,11.65
2022-09-27T09:28:24.236Z,11.72
2022-09-27T09:31:01.922Z,11.85
2022-09-27T09:33:34.247Z,11.73
2022-09-27T09:36:05.521Z,11.81
2022-09-27T09:38:39.408Z,11.92
2022-09-27T09:41:13.047Z,11.91
2022-09-27T09:43:45.039Z,12.15
2022-09-27T09:46:17.754Z,12.30
2022-09-27T09:48:49.152Z,12.65
2022-09-27T09:51:19.809Z,12.81
2022-09-27T09:53:51.449Z,12.68
2022-09-27T09:56:26.059Z,12.79
2022-09-27T09:58:57.764Z,12.77
2022-09-27T10:01:36.025Z,13.01
2022-09-27T10:04:04.839Z,13.04
2022-09-27T10:06:32.244Z,13.14
2022-09-27T10:09:01.311Z,13.08
2022-09-27T10:11:41.220Z,13.44
2022-09-27T10:14:27.852Z,13.26
2022-09-27T10:17:03.591Z,13.38
2022-09-27T10:19:34.482Z,13.44
2022-09-27T10:22:14.198Z,13.54
2022-09-27T10:24:54.281Z,13.61
2022-09-27T10:27:42.339Z,13.58
2022-09-27T10:30:23.123Z,13.63
2022-09-27T10:32:53.170Z,13.47
2022-09-27T10:35:42.586Z,13.56
2022-09-27T10:38:22.472Z,13.57
2022-09-27T10:40:52.407Z,13.41
2022-09-27T10:43:31.314Z,13.38
2022-09-27T10:46:25.632Z,13.46
2022-09-27T10:49:18.394Z,13.50
2022-09-27T10:51:51.211Z,13.41
2022-09-27T10:54:21.676Z,13.28
2022-09-27T10:56:56.333Z,13.38
2022-09-27T10:59:23.964Z,13.16
2022-09-27T11:01:50.949Z,13.36
2022-09-27T11:04:38.613Z,13.14
2022-09-27T11:07:24.369Z,13.64
2022-09-27T11:09:59.681Z,13.54
2022-09-27T11:12:26.377Z,13.58
2022-09-27T11:14:57.818Z,13.64
2022-09-27T11:17:43.461Z,13.52
2022-09-27T11:20:24.022Z,13.58
2022-09-27T11:23:19.087Z,13.77
2022-09-27T11:25:59.428Z,13.85
2022-09-27T11:28:36.945Z,14.16
2022-09-27T11:31:11.517Z,14.17
2022-09-27T11:34:17.847Z,14.10
2022-09-27T11:37:01.435Z,13.62
2022-09-27T11:39:47.197Z,13.91
2022-09-27T11:42:39.075Z,13.75
2022-09-27T11:45:37.128Z,13.67
2022-09-27T11:48:16.390Z,13.63
2022-09-27T11:51:06.782Z,13.59
2022-09-27T11:53:44.357Z,13.47
2022-09-27T11:56:25.114Z,13.52
2022-09-27T11:59:05.074Z,13.59
2022-09-27T12:01:40.237Z,13.51
2022-09-27T12:04:31.919Z,13.29
2022-09-27T12:07:09.291Z,13.32
2022-09-27T12:09:40.711Z,13.42
2022-09-27T12:12:16.129Z,13.06
2022-09-27T12:14:47.090Z,13.42
2022-09-27T12:17:17.922Z,13.40
2022-09-27T12:19:51.461Z,13.46
2022-09-27T12:22:53.863Z,13.77
2022-09-27T12:25:21.183Z,13.86
2022-09-27T12:28:14.118Z,13.86
2022-09-27T12:30:46.114Z,13.77
2022-09-27T12:33:22.923Z,14.10
2022-09-27T12:35:53.145Z,13.86
2022-09-27T12:38:24.032Z,13.81
2022-09-27T12:40:53.596Z,13.91
2022-09-27T12:43:31.656Z,14.02
2022-09-27T12:46:11.878Z,14.02
2022-09-27T12:48:51.133Z,13.99
2022-09-27T12:51:20.966Z,13.78
2022-09-27T12:54:14.976Z,13.94
2022-09-27T12:56:51.914Z,13.68
2022-09-27T12:59:34.741Z,13.77
2022-09-27T13:02:25.223Z,13.80
2022-09-27T13:05:08.115Z,13.72
2022-09-27T13:07:46.560Z,13.51
2022-09-27T13:10:29.205Z,13.52
2022-09-27T13:12:59.401Z,13.40
2022-09-27T13:15:31.493Z,13.25
2022-09-27T13:18:00.207Z,13.19
2022-09-27T13:20:43.635Z,13.26
2022-09-27T13:23:58.923Z,13.29
2022-09-27T13:26:48.497Z,13.31
2022-09-27T13:29:30.408Z,13.30
2022-09-27T13:32:19.978Z,13.53
2022-09-27T13:35:11.213Z,13.47
2022-09-27T13:37:52.237Z,13.43
2022-09-27T13:40:30.068Z,13.40
2022-09-27T13:43:42.944Z,13.60
2022-09-27T13:46:25.387Z,13.69
2022-09-27T13:48:58.817Z,13.35
2022-09-27T13:51:40.520Z,13.34
2022-09-27T13:54:38.202Z,13.39
2022-09-27T13:57:40.526Z,13.43
2022-09-27T14:00:14.172Z,13.44
2022-09-27T14:03:03.287Z,13.45
2022-09-27T14:05:37.818Z,13.35
2022-09-27T14:08:07.039Z,13.30
2022-09-27T14:10:35.061Z,13.27
2022-09-27T14:13:05.661Z,13.03
2022-09-27T14:15:38.884Z,12.72
2022-09-27T14:18:11.926Z,12.33
2022-09-27T14:20:41.361Z,12.31
2022-09-27T14:23:21.605Z,12.14
2022-09-27T14:25:51.872Z,11.93
2022-09-27T14:28:25.451Z,12.04
2022-09-27T14:31:13.704Z,11.94
2022-09-27T14:34:08.393Z,12.23
2022-09-27T14:36:37.812Z,12.38
2022-09-27T14:39:13.328Z,12.68
2022-09-27T14:41:40.225Z,12.84
2022-09-27T14:44:15.743Z,12.92
2022-09-27T14:46:44.135Z,12.90
2022-09-27T14:49:21.969Z,12.95
2022-09-27T14:51:52.650Z,13.03
2022-09-27T14:54:24.425Z,12.98
2022-09-27T14:56:53.503Z,12.91
2022-09-27T14:59:25.226Z,12.92
2022-09-27T15:01:53.970Z,12.91
2022-09-27T15:04:23.414Z,12.87
2022-09-27T15:06:50.544Z,12.91
2022-09-27T15:09:18.515Z,12.80
2022-09-27T15:11:48.940Z,12.81
2022-09-27T15:14:17.465Z,12.48
2022-09-27T15:16:45.822Z,12.44
2022-09-27T15:19:17.165Z,12.43
2022-09-27T15:21:44.533Z,12.35
2022-09-27T15:24:36.648Z,12.24
2022-09-27T15:27:04.081Z,12.10
2022-09-27T15:29:30.856Z,12.25
2022-09-27T15:32:03.379Z,12.34
2022-09-27T15:34:32.427Z,12.32
2022-09-27T15:37:00.400Z,12.37
2022-09-27T15:39:29.096Z,12.50
2022-09-27T15:42:06.954Z,12.48
2022-09-27T15:44:42.955Z,12.50
2022-09-27T15:47:47.382Z,12.46
2022-09-27T15:50:35.279Z,12.50
2022-09-27T15:53:02.150Z,12.50
2022-09-27T15:55:32.218Z,12.33
2022-09-27T15:58:00.599Z,12.19
2022-09-27T16:00:30.010Z,12.02
2022-09-27T16:02:57.410Z,11.83
2022-09-27T16:05:24.666Z,11.54
2022-09-27T16:07:52.670Z,11.11
2022-09-27T16:10:21.452Z,11.33
2022-09-27T16:12:48.071Z,11.23
2022-09-27T16:15:15.010Z,11.27
2022-09-27T16:17:41.773Z,11.17
2022-09-27T16:20:14.899Z,10.98
2022-09-27T16:22:41.479Z,10.93
2022-09-27T16:25:09.759Z,10.77
2022-09-27T16:27:36.382Z,10.74
2022-09-27T16:30:03.078Z,10.75
2022-09-27T16:32:29.666Z,10.67
2022-09-27T16:34:56.261Z,10.62
2022-09-27T16:37:23.181Z,10.68
2022-09-27T16:39:50.114Z,10.46
2022-09-27T16:42:18.067Z,10.62
2022-09-27T16:44:44.594Z,10.55
2022-09-27T16:47:11.232Z,10.63
2022-09-27T16:49:37.767Z,10.57
2022-09-27T16:52:04.524Z,10.52
2022-09-27T16:54:31.580Z,10.60
2022-09-27T16:56:59.745Z,10.27
2022-09-27T16:59:28.028Z,10.54
2022-09-27T17:01:55.142Z,10.46
2022-09-27T17:04:21.839Z,10.33
2022-09-27T17:06:48.765Z,10.19
2022-09-27T17:09:15.316Z,10.25
2022-09-27T17:11:42.049Z,10.20
2022-09-27T17:14:10.591Z,10.22
2022-09-27T17:16:38.954Z,9.78
2022-09-27T17:19:05.846Z,10.06
2022-09-27T17:21:37.827Z,10.03
2022-09-27T17:24:05.780Z,9.97
2022-09-27T17:26:32.869Z,9.84
2022-09-27T17:29:00.800Z,9.88
2022-09-27T17:31:29.063Z,9.78
2022-09-27T17:33:58.110Z,9.82
2022-09-27T17:36:27.349Z,9.50
2022-09-27T17:38:54.606Z,9.71
2022-09-27T17:41:23.107Z,9.66
2022-09-27T17:43:53.311Z,9.63
2022-09-27T17:46:22.461Z,9.42
2022-09-27T17:48:49.729Z,9.59
2022-09-27T17:51:17.762Z,9.56
2022-09-27T17:53:44.715Z,9.59
2022-09-27T17:56:11.690Z,9.56
2022-09-27T17:58:38.427Z,9.55
2022-09-27T18:01:06.584Z,9.54
2022-09-27T18:03:33.289Z,9.50
2022-09-27T18:06:05.211Z,9.49
2022-09-27T18:08:33.509Z,9.38
2022-09-27T18:11:04.754Z,9.47
2022-09-27T18:13:31.712Z,9.43
2022-09-27T18:15:58.322Z,9.42
2022-09-27T18:18:25.269Z,9.36
2022-09-27T18:20:51.799Z,9.17
2022-09-27T18:23:18.604Z,9.34
2022-09-27T18:25:53.220Z,9.07
2022-09-27T18:28:20.050Z,9.31
2022-09-27T18:30:46.651Z,9.30
2022-09-27T18:33:13.239Z,9.16
2022-09-27T18:35:39.788Z,9.31
2022-09-27T18:38:06.463Z,9.21
2022-09-27T18:40:55.020Z,9.24
2022-09-27T18:43:23.158Z,9.28
2022-09-27T18:45:49.887Z,9.28
2022-09-27T18:48:16.811Z,9.30
2022-09-27T18:50:43.941Z,9.22
2022-09-27T18:53:10.552Z,9.29
2022-09-27T18:55:37.488Z,9.29
2022-09-27T18:58:04.362Z,9.31
2022-09-27T19:00:32.570Z,9.03
2022-09-27T19:02:59.558Z,9.26
2022-09-27T19:05:26.621Z,9.19
2022-09-27T19:07:53.633Z,8.88
2022-09-27T19:10:20.239Z,9.37
2022-09-27T19:12:47.098Z,8.84
2022-09-27T19:15:14.206Z,9.16
2022-09-27T19:17:42.365Z,8.77
2022-09-27T19:20:09.561Z,9.02
2022-09-27T19:22:36.320Z,9.30
2022-09-27T19:25:03.374Z,9.29
2022-09-27T19:27:30.717Z,8.91
2022-09-27T19:29:57.447Z,9.39
2022-09-27T19:32:24.420Z,9.23
2022-09-27T19:34:52.305Z,9.32
2022-09-27T19:37:19.119Z,9.30
2022-09-27T19:39:45.720Z,9.24
2022-09-27T19:42:12.548Z,9.14
2022-09-27T19:44:39.429Z,9.16
2022-09-27T19:47:06.255Z,9.18
2022-09-27T19:49:33.394Z,8.46
2022-09-27T19:52:01.927Z,8.93
2022-09-27T19:54:28.671Z,8.92
2022-09-27T19:56:55.546Z,8.87
2022-09-27T19:59:22.095Z,8.80
2022-09-27T20:01:49.180Z,8.69
2022-09-27T20:04:15.951Z,8.70
2022-09-27T20:06:42.530Z,8.73
2022-09-27T20:09:10.939Z,8.18
2022-09-27T20:11:37.605Z,8.60
2022-09-27T20:14:04.145Z,8.55
2022-09-27T20:16:31.378Z,8.51
2022-09-27T20:19:00.474Z,8.47
2022-09-27T20:21:28.907Z,8.45
2022-09-27T20:23:56.809Z,7.91
2022-09-27T20:26:26.650Z,8.41
2022-09-27T20:28:55.271Z,8.39
2022-09-27T20:31:24.073Z,8.29
2022-09-27T20:33:51.542Z,8.26
2022-09-27T20:36:20.247Z,8.30
2022-09-27T20:38:48.440Z,8.12
2022-09-27T20:41:16.992Z,8.21
2022-09-27T20:43:45.787Z,8.39
2022-09-27T20:46:14.382Z,8.24
2022-09-27T20:48:41.216Z,8.40
2022-09-27T20:51:08.004Z,8.41
2022-09-27T20:53:35.108Z,8.43
2022-09-27T20:56:02.395Z,8.45
2022-09-27T20:58:29.839Z,8.46
2022-09-27T21:01:04.679Z,8.44
2022-09-27T21:03:31.631Z,8.49
2022-09-27T21:05:58.813Z,8.51
2022-09-27T21:08:28.209Z,8.51
2022-09-27T21:10:55.267Z,8.25
2022-09-27T21:13:22.210Z,8.57
2022-09-27T21:15:48.841Z,8.58
2022-09-27T21:18:16.735Z,8.47
2022-09-27T21:20:43.444Z,8.55
2022-09-27T21:23:09.967Z,8.63
2022-09-27T21:25:36.722Z,8.66
2022-09-27T21:28:03.249Z,8.70
2022-09-27T21:30:29.793Z,8.72
2022-09-27T21:32:57.243Z,8.69
2022-09-27T21:35:25.269Z,8.75
2022-09-27T21:37:56.103Z,8.77
2022-09-27T21:40:22.825Z,8.36
2022-09-27T21:42:52.345Z,8.84
2022-09-27T21:45:21.367Z,8.87
2022-09-27T21:47:47.954Z,8.85
2022-09-27T21:50:14.743Z,8.87
2022-09-27T21:52:42.715Z,8.81
2022-09-27T21:55:09.478Z,8.89
2022-09-27T21:57:35.990Z,8.72
2022-09-27T22:00:03.185Z,8.96
2022-09-27T22:02:31.006Z,8.96
2022-09-27T22:04:57.580Z,8.98
2022-09-27T22:07:24.140Z,8.96
2022-09-27T22:09:52.115Z,8.98
2022-09-27T22:12:18.615Z,8.82
2022-09-27T22:14:45.200Z,9.02
2022-09-27T22:17:11.741Z,9.01
2022-09-27T22:19:38.318Z,8.93
2022-09-27T22:22:04.852Z,9.03
2022-09-27T22:24:31.377Z,9.04
2022-09-27T22:26:59.254Z,8.89
2022-09-27T22:29:25.860Z,9.09
2022-09-27T22:31:52.465Z,9.06
2022-09-27T22:34:19.204Z,9.06
2022-09-27T22:36:46.764Z,9.03
2022-09-27T22:39:13.491Z,8.75
2022-09-27T22:41:40.027Z,8.93
2022-09-27T22:44:08.017Z,9.04
2022-09-27T22:46:34.679Z,9.03
2022-09-27T22:49:01.251Z,8.90
2022-09-27T22:51:27.819Z,8.76
2022-09-27T22:53:54.437Z,8.90
2022-09-27T22:56:21.185Z,8.95
2022-09-27T22:58:49.199Z,9.04
2022-09-27T23:01:18.597Z,9.05
2022-09-27T23:03:45.347Z,8.95
2022-09-27T23:06:12.915Z,8.98
2022-09-27T23:08:39.629Z,9.10
2022-09-27T23:11:08.198Z,9.12
2022-09-27T23:13:36.634Z,9.13
2022-09-27T23:16:05.615Z,9.08
2022-09-27T23:18:34.199Z,9.10
2022-09-27T23:21:01.861Z,9.19
2022-09-27T23:23:29.004Z,9.23
2022-09-27T23:25:59.609Z,9.08
2022-09-27T23:28:26.890Z,9.10
2022-09-27T23:30:53.434Z,9.17
2022-09-27T23:33:20.034Z,9.15
2022-09-27T23:35:48.491Z,9.21
2022-09-27T23:38:16.423Z,9.18
2022-09-27T23:40:42.997Z,9.16
2022-09-27T23:43:09.638Z,9.25
2022-09-27T23:45:36.198Z,9.25
2022-09-27T23:48:02.846Z,9.09
2022-09-27T23:50:29.495Z,9.28
2022-09-27T23:52:57.455Z,9.33
2022-09-27T23:55:24.040Z,9.34
2022-09-27T23:57:50.829Z,9.32
